Cartagena Trader — 9HA3788 — position and weather

sailwx.info

Track history (hours):
 
Tides and Currents Weather Stations Pressure Air Temp Water Temp Dewpoint Dewpoint Depression Visibility Wind Speed Wind Dir Waves Ship Positions

Cartagena Trader

Last reported at 2018-Feb-18 10:54 UTC. Time now 2018-Feb-19 01:51 UTC.
Position N 37°50' E 009°33'.

Length 231 m; draft 8 m.

Type: Cargo ship. MMSI: 256019000.

Date/timePositionNaut miles runAvg speedWind from/ knotsBaromVisibWave heightAir tempDewpointWater temp
2018-Feb-18 10:54N 37°50' E 009°33'30314.9
2018-Feb-17 14:33N 38°54' E 003°16'114.7
2018-Feb-17 14:30N 38°54' E 003°15'714.7
2018-Feb-17 14:00N 38°56' E 003°05'814.9
2018-Feb-17 13:30N 38°58' E 002°56'915.0
2018-Feb-17 12:55N 38°60' E 002°45'916.5
2018-Feb-17 12:20N 39°02' E 002°33'819.1
2018-Feb-17 11:56N 39°05' E 002°24'715.0
2018-Feb-17 11:29N 39°06' E 002°15'714.8
2018-Feb-17 11:00N 39°08' E 002°06'10115.0
2018-Feb-17 04:15N 39°24' W 000°03'415.0
2018-Feb-17 03:58N 39°24' W 000°08'714.7
2018-Feb-17 03:30N 39°25' W 000°17'2 2.9
2018-Feb-17 03:00N 39°26' W 000°19'0 0.0
2018-Feb-17 02:30N 39°26' W 000°19'0 0.0
2018-Feb-17 02:00N 39°26' W 000°19'0 0.0
2018-Feb-17 01:30N 39°26' W 000°19'0 0.0
2018-Feb-17 01:00N 39°26' W 000°19'0 0.0
2018-Feb-17 00:27N 39°26' W 000°19'0 0.0
2018-Feb-17 00:00N 39°26' W 000°19'0 0.0
2018-Feb-16 23:30N 39°26' W 000°19'0 0.0
2018-Feb-16 23:00N 39°26' W 000°19'0 0.0
2018-Feb-16 22:30N 39°26' W 000°19'0 0.0
2018-Feb-16 22:00N 39°26' W 000°19'0 0.0
2018-Feb-16 21:30N 39°26' W 000°19'0 0.0
2018-Feb-16 21:00N 39°26' W 000°19'0 0.0
2018-Feb-16 20:30N 39°26' W 000°19'0 0.0
2018-Feb-16 20:00N 39°26' W 000°19'0 0.0
2018-Feb-16 19:30N 39°26' W 000°19'0 0.0
2018-Feb-16 19:00N 39°26' W 000°19'0 0.0
2018-Feb-16 18:30N 39°26' W 000°19'0 0.0
2018-Feb-16 18:00N 39°26' W 000°19'0 0.0
2018-Feb-16 17:27N 39°26' W 000°19'0 0.0
2018-Feb-16 17:00N 39°26' W 000°19'0 0.0
2018-Feb-16 16:24N 39°26' W 000°19'0 0.0
2018-Feb-16 16:00N 39°26' W 000°19'0 0.0
2018-Feb-16 15:30N 39°26' W 000°19'0 0.0
2018-Feb-16 15:00N 39°26' W 000°19'0 0.0
2018-Feb-16 14:30N 39°26' W 000°19'0 0.0
2018-Feb-16 14:00N 39°26' W 000°19'0 0.0
2018-Feb-16 13:21N 39°26' W 000°19'0 0.0
2018-Feb-16 13:00N 39°26' W 000°19'0 0.0
2018-Feb-16 12:30N 39°26' W 000°19'0 0.0
2018-Feb-16 12:00N 39°26' W 000°19'0 0.0
2018-Feb-16 11:30N 39°26' W 000°19'0 0.1
2018-Feb-16 11:00N 39°26' W 000°19'0 0.1
2018-Feb-16 10:30N 39°26' W 000°19'0 0.0
2018-Feb-16 10:00N 39°26' W 000°19'0 0.0
2018-Feb-16 09:30N 39°26' W 000°19'0 0.0
2018-Feb-16 09:00N 39°26' W 000°19'0 0.0
2018-Feb-16 08:30N 39°26' W 000°19'0 0.0
2018-Feb-16 07:54N 39°26' W 000°19'0 0.1
2018-Feb-16 07:30N 39°26' W 000°19'0 0.0
2018-Feb-16 07:00N 39°26' W 000°19'0 0.0
2018-Feb-16 06:30N 39°26' W 000°19'0 0.0
2018-Feb-16 06:00N 39°26' W 000°19'2 3.3
2018-Feb-16 05:30N 39°25' W 000°17'5 9.1
2018-Feb-16 05:00N 39°22' W 000°12'7311.0
2018-Feb-15 22:21N 38°10' E 000°01'1014.0
2018-Feb-15 21:38N 38°01' W 000°06'214.2
2018-Feb-15 21:30N 37°60' W 000°07'714.3
2018-Feb-15 21:00N 37°54' W 000°12'714.6
2018-Feb-15 20:29N 37°48' W 000°18'714.7
2018-Feb-15 20:00N 37°42' W 000°23'714.7
2018-Feb-15 19:30N 37°36' W 000°28'815.1
2018-Feb-15 19:00N 37°30' W 000°35'815.2
2018-Feb-15 18:30N 37°25' W 000°42'714.8
2018-Feb-15 18:00N 37°20' W 000°48'814.8
2018-Feb-15 17:29N 37°15' W 000°55'714.8
2018-Feb-15 17:00N 37°10' W 001°02'814.6
2018-Feb-15 16:28N 37°05' W 001°10'20412.3
2018-Feb-14 23:52N 36°02' W 005°11'512.6
2018-Feb-14 23:31N 36°02' W 005°17'611.2
2018-Feb-14 23:01N 36°04' W 005°23'2 3.4
2018-Feb-14 22:30N 36°05' W 005°24'0 0.1
2018-Feb-14 22:00N 36°05' W 005°24'0 0.1
2018-Feb-14 21:30N 36°05' W 005°25'0 0.0
2018-Feb-14 21:00N 36°05' W 005°24'0 0.1
2018-Feb-14 20:30N 36°05' W 005°24'0 0.1
2018-Feb-14 20:00N 36°05' W 005°24'0 0.0
2018-Feb-14 19:30N 36°05' W 005°24'0 0.2
2018-Feb-14 18:59N 36°05' W 005°25'2 3.1
2018-Feb-14 18:30N 36°07' W 005°24'3 5.5
2018-Feb-14 18:00N 36°09' W 005°26'0 0.3
2018-Feb-14 17:30N 36°09' W 005°26'0 0.0
2018-Feb-14 17:00N 36°09' W 005°26'0 0.0
2018-Feb-14 16:30N 36°09' W 005°26'0 0.0
2018-Feb-14 16:00N 36°09' W 005°26'0 0.0
2018-Feb-14 15:30N 36°09' W 005°26'0 0.0
2018-Feb-14 15:00N 36°09' W 005°26'0 0.0
2018-Feb-14 14:30N 36°09' W 005°26'0 0.0
2018-Feb-14 14:00N 36°09' W 005°26'0 0.0
2018-Feb-14 13:30N 36°09' W 005°26'0 0.0
2018-Feb-14 13:00N 36°09' W 005°26'0 0.0
2018-Feb-14 12:30N 36°09' W 005°26'0 0.0
2018-Feb-14 12:00N 36°09' W 005°26'0 0.0
2018-Feb-14 11:30N 36°09' W 005°26'0 0.0
2018-Feb-14 11:00N 36°09' W 005°26'0 0.1
2018-Feb-14 10:30N 36°09' W 005°26'0 0.0
2018-Feb-14 10:00N 36°09' W 005°26'0 0.0
2018-Feb-14 09:30N 36°09' W 005°26'0 0.0
2018-Feb-14 08:57N 36°09' W 005°26'0 0.0
2018-Feb-14 08:30N 36°09' W 005°26'0 0.0
2018-Feb-14 08:00N 36°09' W 005°26'0 0.0
2018-Feb-14 07:30N 36°09' W 005°26'0 0.0
2018-Feb-14 07:00N 36°09' W 005°26'0 0.0
2018-Feb-14 06:30N 36°09' W 005°26'0 0.0
2018-Feb-14 06:00N 36°09' W 005°26'0 0.0
2018-Feb-14 05:30N 36°09' W 005°26'0 0.0
2018-Feb-14 04:57N 36°09' W 005°26'0 0.0
2018-Feb-14 04:30N 36°09' W 005°26'0 0.0
2018-Feb-14 04:00N 36°09' W 005°26'0 0.0
2018-Feb-14 03:30N 36°09' W 005°26'0 0.0
2018-Feb-14 02:57N 36°09' W 005°26'0 0.0
2018-Feb-14 02:30N 36°09' W 005°26'0 0.0
2018-Feb-14 02:00N 36°09' W 005°26'0 0.0
2018-Feb-14 01:30N 36°09' W 005°26'0 0.0
2018-Feb-14 01:00N 36°09' W 005°26'1 1.6
2018-Feb-14 00:30N 36°09' W 005°25'1 2.5
2018-Feb-13 23:56N 36°08' W 005°24'0 0.0
2018-Feb-13 23:29N 36°08' W 005°24'0 0.1
2018-Feb-13 22:59N 36°08' W 005°24'0 0.1
2018-Feb-13 22:29N 36°08' W 005°24'0 0.1
2018-Feb-13 21:59N 36°08' W 005°24'0 0.0
2018-Feb-13 21:29N 36°08' W 005°24'0 0.0
2018-Feb-13 20:59N 36°08' W 005°24'0 0.2
2018-Feb-13 20:26N 36°07' W 005°24'0 0.0
2018-Feb-13 19:59N 36°07' W 005°24'0 0.1
2018-Feb-13 19:29N 36°07' W 005°24'0 0.1
2018-Feb-13 18:59N 36°07' W 005°24'0 0.1
2018-Feb-13 18:29N 36°07' W 005°24'0 0.1
2018-Feb-13 17:59N 36°07' W 005°24'0 0.0
2018-Feb-13 17:29N 36°07' W 005°24'0 0.1
2018-Feb-13 16:59N 36°07' W 005°24'0 0.0
2018-Feb-13 16:29N 36°07' W 005°24'0 0.0
2018-Feb-13 15:59N 36°07' W 005°24'0 0.1
2018-Feb-13 15:20N 36°07' W 005°24'0 0.1
2018-Feb-13 14:59N 36°07' W 005°24'0 0.1
2018-Feb-13 14:29N 36°07' W 005°24'0 0.2
2018-Feb-13 13:50N 36°08' W 005°24'0 0.0
2018-Feb-13 13:29N 36°08' W 005°24'0 0.0
2018-Feb-13 12:08N 36°07' W 005°24'0 0.1
2018-Feb-13 11:53N 36°07' W 005°24'0 0.1
2018-Feb-13 11:26N 36°08' W 005°24'0 0.2
2018-Feb-13 10:59N 36°08' W 005°24'0 0.2
2018-Feb-13 10:29N 36°08' W 005°25'0 0.1
2018-Feb-13 09:59N 36°08' W 005°25'0 0.1
2018-Feb-13 09:29N 36°08' W 005°25'0 0.2
2018-Feb-13 08:53N 36°08' W 005°24'0 0.1
2018-Feb-13 08:29N 36°07' W 005°24'0 0.0
2018-Feb-13 07:59N 36°07' W 005°24'0 0.2
2018-Feb-13 07:29N 36°07' W 005°24'0 0.1
2018-Feb-13 06:56N 36°07' W 005°24'0 0.1
2018-Feb-13 06:29N 36°07' W 005°25'1 1.1
2018-Feb-13 06:00N 36°07' W 005°25'1 1.6
2018-Feb-13 05:30N 36°08' W 005°25'0 0.0
2018-Feb-13 05:00N 36°08' W 005°25'0 0.0
2018-Feb-13 04:30N 36°08' W 005°25'0 0.0
2018-Feb-13 04:00N 36°08' W 005°25'0 0.0
2018-Feb-13 03:30N 36°08' W 005°25'0 0.0
2018-Feb-13 03:00N 36°08' W 005°25'0 0.0
2018-Feb-13 02:30N 36°08' W 005°25'0 0.0
2018-Feb-13 02:00N 36°08' W 005°25'0 0.0
2018-Feb-13 01:30N 36°08' W 005°25'0 0.0
2018-Feb-13 01:00N 36°08' W 005°25'0 0.0
2018-Feb-13 00:30N 36°08' W 005°25'0 0.0
2018-Feb-13 00:00N 36°08' W 005°25'1 2.0
2018-Feb-12 23:30N 36°08' W 005°25'1 2.0
2018-Feb-12 22:55N 36°07' W 005°24'0 0.0
2018-Feb-12 22:28N 36°07' W 005°24'0 0.0
2018-Feb-12 21:58N 36°07' W 005°24'0 0.0
2018-Feb-12 21:28N 36°07' W 005°24'0 0.0
2018-Feb-12 20:58N 36°07' W 005°24'0 0.0
2018-Feb-12 20:28N 36°07' W 005°24'0 0.0
2018-Feb-12 19:46N 36°07' W 005°24'0 0.0
2018-Feb-12 19:28N 36°07' W 005°24'0 0.0
2018-Feb-12 18:58N 36°07' W 005°24'0 0.0
2018-Feb-12 18:25N 36°07' W 005°24'0 0.0
2018-Feb-12 17:52N 36°07' W 005°24'0 0.0
2018-Feb-12 17:28N 36°07' W 005°24'0 0.0
2018-Feb-12 16:58N 36°07' W 005°24'0 0.0
2018-Feb-12 16:25N 36°07' W 005°24'0 0.1
2018-Feb-12 15:58N 36°07' W 005°24'0 0.0
2018-Feb-12 15:16N 36°07' W 005°24'0 0.0
2018-Feb-12 14:58N 36°07' W 005°24'0 0.0
2018-Feb-12 14:28N 36°07' W 005°24'0 0.1
2018-Feb-12 13:52N 36°07' W 005°24'0 0.1
2018-Feb-12 13:28N 36°07' W 005°24'0 0.1
2018-Feb-12 12:58N 36°07' W 005°24'0 0.0
2018-Feb-12 12:28N 36°07' W 005°24'0 0.1
2018-Feb-12 11:58N 36°07' W 005°24'0 0.0
2018-Feb-12 11:28N 36°07' W 005°24'0 0.1
2018-Feb-12 10:58N 36°07' W 005°24'0 0.1
2018-Feb-12 10:28N 36°07' W 005°24'0 0.1
2018-Feb-12 09:58N 36°07' W 005°24'0 0.0
2018-Feb-12 09:28N 36°07' W 005°24'0 0.1
2018-Feb-12 08:58N 36°07' W 005°24'0 0.2
2018-Feb-12 08:28N 36°07' W 005°24'0 0.3
2018-Feb-12 07:58N 36°07' W 005°24'0 0.1
2018-Feb-12 07:25N 36°07' W 005°24'0 0.2
2018-Feb-12 06:55N 36°07' W 005°24'0 0.1
2018-Feb-12 06:25N 36°07' W 005°24'0 0.1
2018-Feb-12 05:58N 36°07' W 005°24'0 0.2
2018-Feb-12 05:28N 36°07' W 005°24'0 0.1
2018-Feb-12 04:58N 36°07' W 005°24'0 0.0
2018-Feb-12 04:28N 36°07' W 005°24'0 0.1
2018-Feb-12 03:58N 36°07' W 005°24'0 0.1
2018-Feb-12 03:28N 36°07' W 005°24'0 0.1
2018-Feb-12 02:58N 36°07' W 005°24'0 0.1
2018-Feb-12 02:28N 36°07' W 005°24'0 0.0
2018-Feb-12 01:58N 36°07' W 005°24'0 0.0
2018-Feb-12 01:28N 36°07' W 005°24'0 0.1
2018-Feb-12 00:58N 36°07' W 005°24'0 0.1
2018-Feb-12 00:28N 36°07' W 005°24'0 0.0
2018-Feb-11 23:58N 36°07' W 005°24'0 0.1
2018-Feb-11 23:28N 36°07' W 005°24'0 0.0
2018-Feb-11 22:58N 36°07' W 005°24'0 0.1
2018-Feb-11 22:28N 36°07' W 005°24'0 0.1
2018-Feb-11 21:58N 36°07' W 005°24'0 0.1
2018-Feb-11 21:28N 36°07' W 005°24'0 0.1
2018-Feb-11 20:58N 36°07' W 005°24'0 0.1
2018-Feb-11 20:28N 36°07' W 005°24'0 0.1
2018-Feb-11 19:58N 36°07' W 005°24'0 0.1
2018-Feb-11 19:28N 36°07' W 005°24'0 0.1
2018-Feb-11 18:58N 36°07' W 005°24'0 0.0
2018-Feb-11 18:28N 36°07' W 005°24'0 0.0
2018-Feb-11 17:58N 36°07' W 005°24'0 0.0
2018-Feb-11 17:28N 36°07' W 005°24'0 0.0
2018-Feb-11 16:58N 36°07' W 005°24'0 0.1
2018-Feb-11 16:28N 36°07' W 005°24'0 0.1
2018-Feb-11 15:58N 36°07' W 005°24'0 0.0
2018-Feb-11 15:28N 36°07' W 005°24'0 0.0
2018-Feb-11 14:58N 36°07' W 005°24'0 0.0
2018-Feb-11 14:28N 36°07' W 005°24'0 0.1
2018-Feb-11 13:58N 36°07' W 005°24'0 0.0
2018-Feb-11 13:25N 36°07' W 005°24'0 0.0
2018-Feb-11 12:58N 36°07' W 005°24'0 0.1
2018-Feb-11 12:28N 36°07' W 005°24'0 0.2
2018-Feb-11 11:58N 36°07' W 005°24'0 0.0
2018-Feb-11 11:28N 36°07' W 005°24'0 0.1
2018-Feb-11 10:58N 36°07' W 005°24'0 0.0
2018-Feb-11 10:28N 36°07' W 005°24'0 0.1
2018-Feb-11 09:58N 36°07' W 005°24'0 0.1
2018-Feb-11 09:28N 36°07' W 005°24'0 0.1
2018-Feb-11 08:58N 36°07' W 005°24'0 0.0
2018-Feb-11 08:28N 36°07' W 005°24'0 0.0
2018-Feb-11 07:58N 36°07' W 005°24'0 0.1
2018-Feb-11 07:28N 36°07' W 005°24'0 0.2
2018-Feb-11 06:58N 36°07' W 005°24'0 0.1
2018-Feb-11 06:28N 36°07' W 005°24'0 0.0
2018-Feb-11 05:58N 36°07' W 005°24'0 0.1
2018-Feb-11 05:28N 36°07' W 005°24'0 0.1
2018-Feb-11 04:58N 36°07' W 005°24'0 0.0
2018-Feb-11 04:28N 36°07' W 005°24'0 0.0
2018-Feb-11 03:58N 36°07' W 005°24'0 0.0
2018-Feb-11 03:28N 36°07' W 005°24'0 0.0
2018-Feb-11 02:58N 36°07' W 005°24'0 0.0
2018-Feb-11 02:28N 36°07' W 005°24'0 0.0
2018-Feb-11 01:58N 36°07' W 005°24'0 0.1
2018-Feb-11 01:28N 36°07' W 005°24'0 0.1
2018-Feb-11 00:58N 36°07' W 005°24'0 0.1
2018-Feb-11 00:28N 36°07' W 005°24'0 0.0
2018-Feb-10 23:43N 36°07' W 005°24'0 0.0
2018-Feb-10 23:19N 36°07' W 005°24'0 0.0
2018-Feb-10 22:40N 36°07' W 005°24'0 0.1
2018-Feb-10 22:25N 36°07' W 005°24'0 0.1
2018-Feb-10 21:43N 36°07' W 005°24'0 0.1
2018-Feb-10 21:28N 36°07' W 005°24'0 0.0
2018-Feb-10 20:58N 36°07' W 005°24'0 0.1
2018-Feb-10 20:28N 36°07' W 005°24'0 0.0
2018-Feb-10 19:40N 36°07' W 005°24'0 0.0
2018-Feb-10 19:13N 36°07' W 005°24'0 0.0
2018-Feb-10 18:58N 36°07' W 005°24'0 0.0
2018-Feb-10 18:25N 36°07' W 005°24'0 0.0
2018-Feb-10 17:58N 36°07' W 005°24'0 0.0
2018-Feb-10 17:28N 36°07' W 005°24'0 0.0
2018-Feb-10 16:58N 36°07' W 005°24'0 0.0
2018-Feb-10 16:22N 36°07' W 005°24'0 0.1
2018-Feb-10 15:58N 36°07' W 005°24'0 0.1
2018-Feb-10 15:25N 36°07' W 005°24'0 0.0
2018-Feb-10 14:58N 36°07' W 005°24'0 0.0
2018-Feb-10 14:28N 36°07' W 005°24'0 0.0
2018-Feb-10 13:58N 36°07' W 005°24'0 0.1
2018-Feb-10 13:28N 36°07' W 005°24'0 0.0
2018-Feb-10 12:58N 36°07' W 005°24'0 0.1
2018-Feb-10 12:28N 36°07' W 005°24'0 0.0
2018-Feb-10 11:58N 36°07' W 005°24'0 0.2
2018-Feb-10 11:28N 36°07' W 005°24'0 0.1
2018-Feb-10 10:55N 36°07' W 005°24'0 0.1
2018-Feb-10 10:28N 36°07' W 005°24'0 0.1
2018-Feb-10 09:55N 36°07' W 005°24'0 0.0
2018-Feb-10 09:28N 36°07' W 005°24'0 0.0
2018-Feb-10 08:58N 36°07' W 005°24'0 0.0
2018-Feb-10 08:28N 36°07' W 005°24'0 0.0
2018-Feb-10 07:58N 36°07' W 005°24'0 0.1
2018-Feb-10 07:28N 36°07' W 005°24'0 0.1
2018-Feb-10 06:58N 36°07' W 005°24'0 0.0
2018-Feb-10 06:28N 36°07' W 005°24'0 0.1
2018-Feb-10 05:58N 36°07' W 005°24'0 0.1
2018-Feb-10 05:28N 36°07' W 005°24'0 0.0
2018-Feb-10 04:58N 36°07' W 005°24'0 0.1
2018-Feb-10 04:28N 36°07' W 005°24'0 0.0
2018-Feb-10 03:58N 36°07' W 005°24'0 0.1
2018-Feb-10 03:28N 36°07' W 005°24'0 0.1
2018-Feb-10 02:58N 36°07' W 005°24'0 0.0
2018-Feb-10 02:28N 36°07' W 005°24'0 0.0
2018-Feb-10 01:58N 36°07' W 005°24'0 0.0
2018-Feb-10 01:28N 36°07' W 005°24'0 0.1
2018-Feb-10 00:58N 36°07' W 005°24'0 0.2
2018-Feb-10 00:30N 36°07' W 005°24'1 2.5
2018-Feb-10 00:00N 36°06' W 005°23'4 7.9
2018-Feb-09 23:30N 36°04' W 005°19'5 9.3
2018-Feb-09 23:00N 36°04' W 005°13'1 5.8
2018-Feb-09 22:45N 36°04' W 005°11'  
Track history (hours):
 
Tides and Currents Weather Stations Pressure Air Temp Water Temp Dewpoint Dewpoint Depression Visibility Wind Speed Wind Dir Waves Ship Positions

Cartagena Trader

Last reported at 2018-Feb-18 10:54 UTC. Time now 2018-Feb-19 01:51 UTC.
Position N 37°50' E 009°33'.

Length 231 m; draft 8 m.

Type: Cargo ship. MMSI: 256019000.

Date/timePositionNaut miles runAvg speedWind from/ knotsBaromVisibWave heightAir tempDewpointWater temp
2018-Feb-18 10:54N 37°50' E 009°33'30314.9
2018-Feb-17 14:33N 38°54' E 003°16'114.7
2018-Feb-17 14:30N 38°54' E 003°15'714.7
2018-Feb-17 14:00N 38°56' E 003°05'814.9
2018-Feb-17 13:30N 38°58' E 002°56'915.0
2018-Feb-17 12:55N 38°60' E 002°45'916.5
2018-Feb-17 12:20N 39°02' E 002°33'819.1
2018-Feb-17 11:56N 39°05' E 002°24'715.0
2018-Feb-17 11:29N 39°06' E 002°15'714.8
2018-Feb-17 11:00N 39°08' E 002°06'10115.0
2018-Feb-17 04:15N 39°24' W 000°03'415.0
2018-Feb-17 03:58N 39°24' W 000°08'714.7
2018-Feb-17 03:30N 39°25' W 000°17'2 2.9
2018-Feb-17 03:00N 39°26' W 000°19'0 0.0
2018-Feb-17 02:30N 39°26' W 000°19'0 0.0
2018-Feb-17 02:00N 39°26' W 000°19'0 0.0
2018-Feb-17 01:30N 39°26' W 000°19'0 0.0
2018-Feb-17 01:00N 39°26' W 000°19'0 0.0
2018-Feb-17 00:27N 39°26' W 000°19'0 0.0
2018-Feb-17 00:00N 39°26' W 000°19'0 0.0
2018-Feb-16 23:30N 39°26' W 000°19'0 0.0
2018-Feb-16 23:00N 39°26' W 000°19'0 0.0
2018-Feb-16 22:30N 39°26' W 000°19'0 0.0
2018-Feb-16 22:00N 39°26' W 000°19'0 0.0
2018-Feb-16 21:30N 39°26' W 000°19'0 0.0
2018-Feb-16 21:00N 39°26' W 000°19'0 0.0
2018-Feb-16 20:30N 39°26' W 000°19'0 0.0
2018-Feb-16 20:00N 39°26' W 000°19'0 0.0
2018-Feb-16 19:30N 39°26' W 000°19'0 0.0
2018-Feb-16 19:00N 39°26' W 000°19'0 0.0
2018-Feb-16 18:30N 39°26' W 000°19'0 0.0
2018-Feb-16 18:00N 39°26' W 000°19'0 0.0
2018-Feb-16 17:27N 39°26' W 000°19'0 0.0
2018-Feb-16 17:00N 39°26' W 000°19'0 0.0
2018-Feb-16 16:24N 39°26' W 000°19'0 0.0
2018-Feb-16 16:00N 39°26' W 000°19'0 0.0
2018-Feb-16 15:30N 39°26' W 000°19'0 0.0
2018-Feb-16 15:00N 39°26' W 000°19'0 0.0
2018-Feb-16 14:30N 39°26' W 000°19'0 0.0
2018-Feb-16 14:00N 39°26' W 000°19'0 0.0
2018-Feb-16 13:21N 39°26' W 000°19'0 0.0
2018-Feb-16 13:00N 39°26' W 000°19'0 0.0
2018-Feb-16 12:30N 39°26' W 000°19'0 0.0
2018-Feb-16 12:00N 39°26' W 000°19'0 0.0
2018-Feb-16 11:30N 39°26' W 000°19'0 0.1
2018-Feb-16 11:00N 39°26' W 000°19'0 0.1
2018-Feb-16 10:30N 39°26' W 000°19'0 0.0
2018-Feb-16 10:00N 39°26' W 000°19'0 0.0
2018-Feb-16 09:30N 39°26' W 000°19'0 0.0
2018-Feb-16 09:00N 39°26' W 000°19'0 0.0
2018-Feb-16 08:30N 39°26' W 000°19'0 0.0
2018-Feb-16 07:54N 39°26' W 000°19'0 0.1
2018-Feb-16 07:30N 39°26' W 000°19'0 0.0
2018-Feb-16 07:00N 39°26' W 000°19'0 0.0
2018-Feb-16 06:30N 39°26' W 000°19'0 0.0
2018-Feb-16 06:00N 39°26' W 000°19'2 3.3
2018-Feb-16 05:30N 39°25' W 000°17'5 9.1
2018-Feb-16 05:00N 39°22' W 000°12'7311.0
2018-Feb-15 22:21N 38°10' E 000°01'1014.0
2018-Feb-15 21:38N 38°01' W 000°06'214.2
2018-Feb-15 21:30N 37°60' W 000°07'714.3
2018-Feb-15 21:00N 37°54' W 000°12'714.6
2018-Feb-15 20:29N 37°48' W 000°18'714.7
2018-Feb-15 20:00N 37°42' W 000°23'714.7
2018-Feb-15 19:30N 37°36' W 000°28'815.1
2018-Feb-15 19:00N 37°30' W 000°35'815.2
2018-Feb-15 18:30N 37°25' W 000°42'714.8
2018-Feb-15 18:00N 37°20' W 000°48'814.8
2018-Feb-15 17:29N 37°15' W 000°55'714.8
2018-Feb-15 17:00N 37°10' W 001°02'814.6
2018-Feb-15 16:28N 37°05' W 001°10'20412.3
2018-Feb-14 23:52N 36°02' W 005°11'512.6
2018-Feb-14 23:31N 36°02' W 005°17'611.2
2018-Feb-14 23:01N 36°04' W 005°23'2 3.4
2018-Feb-14 22:30N 36°05' W 005°24'0 0.1
2018-Feb-14 22:00N 36°05' W 005°24'0 0.1
2018-Feb-14 21:30N 36°05' W 005°25'0 0.0
2018-Feb-14 21:00N 36°05' W 005°24'0 0.1
2018-Feb-14 20:30N 36°05' W 005°24'0 0.1
2018-Feb-14 20:00N 36°05' W 005°24'0 0.0
2018-Feb-14 19:30N 36°05' W 005°24'0 0.2
2018-Feb-14 18:59N 36°05' W 005°25'2 3.1
2018-Feb-14 18:30N 36°07' W 005°24'3 5.5
2018-Feb-14 18:00N 36°09' W 005°26'0 0.3
2018-Feb-14 17:30N 36°09' W 005°26'0 0.0
2018-Feb-14 17:00N 36°09' W 005°26'0 0.0
2018-Feb-14 16:30N 36°09' W 005°26'0 0.0
2018-Feb-14 16:00N 36°09' W 005°26'0 0.0
2018-Feb-14 15:30N 36°09' W 005°26'0 0.0
2018-Feb-14 15:00N 36°09' W 005°26'0 0.0
2018-Feb-14 14:30N 36°09' W 005°26'0 0.0
2018-Feb-14 14:00N 36°09' W 005°26'0 0.0
2018-Feb-14 13:30N 36°09' W 005°26'0 0.0
2018-Feb-14 13:00N 36°09' W 005°26'0 0.0
2018-Feb-14 12:30N 36°09' W 005°26'0 0.0
2018-Feb-14 12:00N 36°09' W 005°26'0 0.0
2018-Feb-14 11:30N 36°09' W 005°26'0 0.0
2018-Feb-14 11:00N 36°09' W 005°26'0 0.1
2018-Feb-14 10:30N 36°09' W 005°26'0 0.0
2018-Feb-14 10:00N 36°09' W 005°26'0 0.0
2018-Feb-14 09:30N 36°09' W 005°26'0 0.0
2018-Feb-14 08:57N 36°09' W 005°26'0 0.0
2018-Feb-14 08:30N 36°09' W 005°26'0 0.0
2018-Feb-14 08:00N 36°09' W 005°26'0 0.0
2018-Feb-14 07:30N 36°09' W 005°26'0 0.0
2018-Feb-14 07:00N 36°09' W 005°26'0 0.0
2018-Feb-14 06:30N 36°09' W 005°26'0 0.0
2018-Feb-14 06:00N 36°09' W 005°26'0 0.0
2018-Feb-14 05:30N 36°09' W 005°26'0 0.0
2018-Feb-14 04:57N 36°09' W 005°26'0 0.0
2018-Feb-14 04:30N 36°09' W 005°26'0 0.0
2018-Feb-14 04:00N 36°09' W 005°26'0 0.0
2018-Feb-14 03:30N 36°09' W 005°26'0 0.0
2018-Feb-14 02:57N 36°09' W 005°26'0 0.0
2018-Feb-14 02:30N 36°09' W 005°26'0 0.0
2018-Feb-14 02:00N 36°09' W 005°26'0 0.0
2018-Feb-14 01:30N 36°09' W 005°26'0 0.0
2018-Feb-14 01:00N 36°09' W 005°26'1 1.6
2018-Feb-14 00:30N 36°09' W 005°25'1 2.5
2018-Feb-13 23:56N 36°08' W 005°24'0 0.0
2018-Feb-13 23:29N 36°08' W 005°24'0 0.1
2018-Feb-13 22:59N 36°08' W 005°24'0 0.1
2018-Feb-13 22:29N 36°08' W 005°24'0 0.1
2018-Feb-13 21:59N 36°08' W 005°24'0 0.0
2018-Feb-13 21:29N 36°08' W 005°24'0 0.0
2018-Feb-13 20:59N 36°08' W 005°24'0 0.2
2018-Feb-13 20:26N 36°07' W 005°24'0 0.0
2018-Feb-13 19:59N 36°07' W 005°24'0 0.1
2018-Feb-13 19:29N 36°07' W 005°24'0 0.1
2018-Feb-13 18:59N 36°07' W 005°24'0 0.1
2018-Feb-13 18:29N 36°07' W 005°24'0 0.1
2018-Feb-13 17:59N 36°07' W 005°24'0 0.0
2018-Feb-13 17:29N 36°07' W 005°24'0 0.1
2018-Feb-13 16:59N 36°07' W 005°24'0 0.0
2018-Feb-13 16:29N 36°07' W 005°24'0 0.0
2018-Feb-13 15:59N 36°07' W 005°24'0 0.1
2018-Feb-13 15:20N 36°07' W 005°24'0 0.1
2018-Feb-13 14:59N 36°07' W 005°24'0 0.1
2018-Feb-13 14:29N 36°07' W 005°24'0 0.2
2018-Feb-13 13:50N 36°08' W 005°24'0 0.0
2018-Feb-13 13:29N 36°08' W 005°24'0 0.0
2018-Feb-13 12:08N 36°07' W 005°24'0 0.1
2018-Feb-13 11:53N 36°07' W 005°24'0 0.1
2018-Feb-13 11:26N 36°08' W 005°24'0 0.2
2018-Feb-13 10:59N 36°08' W 005°24'0 0.2
2018-Feb-13 10:29N 36°08' W 005°25'0 0.1
2018-Feb-13 09:59N 36°08' W 005°25'0 0.1
2018-Feb-13 09:29N 36°08' W 005°25'0 0.2
2018-Feb-13 08:53N 36°08' W 005°24'0 0.1
2018-Feb-13 08:29N 36°07' W 005°24'0 0.0
2018-Feb-13 07:59N 36°07' W 005°24'0 0.2
2018-Feb-13 07:29N 36°07' W 005°24'0 0.1
2018-Feb-13 06:56N 36°07' W 005°24'0 0.1
2018-Feb-13 06:29N 36°07' W 005°25'1 1.1
2018-Feb-13 06:00N 36°07' W 005°25'1 1.6
2018-Feb-13 05:30N 36°08' W 005°25'0 0.0
2018-Feb-13 05:00N 36°08' W 005°25'0 0.0
2018-Feb-13 04:30N 36°08' W 005°25'0 0.0
2018-Feb-13 04:00N 36°08' W 005°25'0 0.0
2018-Feb-13 03:30N 36°08' W 005°25'0 0.0
2018-Feb-13 03:00N 36°08' W 005°25'0 0.0
2018-Feb-13 02:30N 36°08' W 005°25'0 0.0
2018-Feb-13 02:00N 36°08' W 005°25'0 0.0
2018-Feb-13 01:30N 36°08' W 005°25'0 0.0
2018-Feb-13 01:00N 36°08' W 005°25'0 0.0
2018-Feb-13 00:30N 36°08' W 005°25'0 0.0
2018-Feb-13 00:00N 36°08' W 005°25'1 2.0
2018-Feb-12 23:30N 36°08' W 005°25'1 2.0
2018-Feb-12 22:55N 36°07' W 005°24'0 0.0
2018-Feb-12 22:28N 36°07' W 005°24'0 0.0
2018-Feb-12 21:58N 36°07' W 005°24'0 0.0
2018-Feb-12 21:28N 36°07' W 005°24'0 0.0
2018-Feb-12 20:58N 36°07' W 005°24'0 0.0
2018-Feb-12 20:28N 36°07' W 005°24'0 0.0
2018-Feb-12 19:46N 36°07' W 005°24'0 0.0
2018-Feb-12 19:28N 36°07' W 005°24'0 0.0
2018-Feb-12 18:58N 36°07' W 005°24'0 0.0
2018-Feb-12 18:25N 36°07' W 005°24'0 0.0
2018-Feb-12 17:52N 36°07' W 005°24'0 0.0
2018-Feb-12 17:28N 36°07' W 005°24'0 0.0
2018-Feb-12 16:58N 36°07' W 005°24'0 0.0
2018-Feb-12 16:25N 36°07' W 005°24'0 0.1
2018-Feb-12 15:58N 36°07' W 005°24'0 0.0
2018-Feb-12 15:16N 36°07' W 005°24'0 0.0
2018-Feb-12 14:58N 36°07' W 005°24'0 0.0
2018-Feb-12 14:28N 36°07' W 005°24'0 0.1
2018-Feb-12 13:52N 36°07' W 005°24'0 0.1
2018-Feb-12 13:28N 36°07' W 005°24'0 0.1
2018-Feb-12 12:58N 36°07' W 005°24'0 0.0
2018-Feb-12 12:28N 36°07' W 005°24'0 0.1
2018-Feb-12 11:58N 36°07' W 005°24'0 0.0
2018-Feb-12 11:28N 36°07' W 005°24'0 0.1
2018-Feb-12 10:58N 36°07' W 005°24'0 0.1
2018-Feb-12 10:28N 36°07' W 005°24'0 0.1
2018-Feb-12 09:58N 36°07' W 005°24'0 0.0
2018-Feb-12 09:28N 36°07' W 005°24'0 0.1
2018-Feb-12 08:58N 36°07' W 005°24'0 0.2
2018-Feb-12 08:28N 36°07' W 005°24'0 0.3
2018-Feb-12 07:58N 36°07' W 005°24'0 0.1
2018-Feb-12 07:25N 36°07' W 005°24'0 0.2
2018-Feb-12 06:55N 36°07' W 005°24'0 0.1
2018-Feb-12 06:25N 36°07' W 005°24'0 0.1
2018-Feb-12 05:58N 36°07' W 005°24'0 0.2
2018-Feb-12 05:28N 36°07' W 005°24'0 0.1
2018-Feb-12 04:58N 36°07' W 005°24'0 0.0
2018-Feb-12 04:28N 36°07' W 005°24'0 0.1
2018-Feb-12 03:58N 36°07' W 005°24'0 0.1
2018-Feb-12 03:28N 36°07' W 005°24'0 0.1
2018-Feb-12 02:58N 36°07' W 005°24'0 0.1
2018-Feb-12 02:28N 36°07' W 005°24'0 0.0
2018-Feb-12 01:58N 36°07' W 005°24'0 0.0
2018-Feb-12 01:28N 36°07' W 005°24'0 0.1
2018-Feb-12 00:58N 36°07' W 005°24'0 0.1
2018-Feb-12 00:28N 36°07' W 005°24'0 0.0
2018-Feb-11 23:58N 36°07' W 005°24'0 0.1
2018-Feb-11 23:28N 36°07' W 005°24'0 0.0
2018-Feb-11 22:58N 36°07' W 005°24'0 0.1
2018-Feb-11 22:28N 36°07' W 005°24'0 0.1
2018-Feb-11 21:58N 36°07' W 005°24'0 0.1
2018-Feb-11 21:28N 36°07' W 005°24'0 0.1
2018-Feb-11 20:58N 36°07' W 005°24'0 0.1
2018-Feb-11 20:28N 36°07' W 005°24'0 0.1
2018-Feb-11 19:58N 36°07' W 005°24'0 0.1
2018-Feb-11 19:28N 36°07' W 005°24'0 0.1
2018-Feb-11 18:58N 36°07' W 005°24'0 0.0
2018-Feb-11 18:28N 36°07' W 005°24'0 0.0
2018-Feb-11 17:58N 36°07' W 005°24'0 0.0
2018-Feb-11 17:28N 36°07' W 005°24'0 0.0
2018-Feb-11 16:58N 36°07' W 005°24'0 0.1
2018-Feb-11 16:28N 36°07' W 005°24'0 0.1
2018-Feb-11 15:58N 36°07' W 005°24'0 0.0
2018-Feb-11 15:28N 36°07' W 005°24'0 0.0
2018-Feb-11 14:58N 36°07' W 005°24'0 0.0
2018-Feb-11 14:28N 36°07' W 005°24'0 0.1
2018-Feb-11 13:58N 36°07' W 005°24'0 0.0
2018-Feb-11 13:25N 36°07' W 005°24'0 0.0
2018-Feb-11 12:58N 36°07' W 005°24'0 0.1
2018-Feb-11 12:28N 36°07' W 005°24'0 0.2
2018-Feb-11 11:58N 36°07' W 005°24'0 0.0
2018-Feb-11 11:28N 36°07' W 005°24'0 0.1
2018-Feb-11 10:58N 36°07' W 005°24'0 0.0
2018-Feb-11 10:28N 36°07' W 005°24'0 0.1
2018-Feb-11 09:58N 36°07' W 005°24'0 0.1
2018-Feb-11 09:28N 36°07' W 005°24'0 0.1
2018-Feb-11 08:58N 36°07' W 005°24'0 0.0
2018-Feb-11 08:28N 36°07' W 005°24'0 0.0
2018-Feb-11 07:58N 36°07' W 005°24'0 0.1
2018-Feb-11 07:28N 36°07' W 005°24'0 0.2
2018-Feb-11 06:58N 36°07' W 005°24'0 0.1
2018-Feb-11 06:28N 36°07' W 005°24'0 0.0
2018-Feb-11 05:58N 36°07' W 005°24'0 0.1
2018-Feb-11 05:28N 36°07' W 005°24'0 0.1
2018-Feb-11 04:58N 36°07' W 005°24'0 0.0
2018-Feb-11 04:28N 36°07' W 005°24'0 0.0
2018-Feb-11 03:58N 36°07' W 005°24'0 0.0
2018-Feb-11 03:28N 36°07' W 005°24'0 0.0
2018-Feb-11 02:58N 36°07' W 005°24'0 0.0
2018-Feb-11 02:28N 36°07' W 005°24'0 0.0
2018-Feb-11 01:58N 36°07' W 005°24'0 0.1
2018-Feb-11 01:28N 36°07' W 005°24'0 0.1
2018-Feb-11 00:58N 36°07' W 005°24'0 0.1
2018-Feb-11 00:28N 36°07' W 005°24'0 0.0
2018-Feb-10 23:43N 36°07' W 005°24'0 0.0
2018-Feb-10 23:19N 36°07' W 005°24'0 0.0
2018-Feb-10 22:40N 36°07' W 005°24'0 0.1
2018-Feb-10 22:25N 36°07' W 005°24'0 0.1
2018-Feb-10 21:43N 36°07' W 005°24'0 0.1
2018-Feb-10 21:28N 36°07' W 005°24'0 0.0
2018-Feb-10 20:58N 36°07' W 005°24'0 0.1
2018-Feb-10 20:28N 36°07' W 005°24'0 0.0
2018-Feb-10 19:40N 36°07' W 005°24'0 0.0
2018-Feb-10 19:13N 36°07' W 005°24'0 0.0
2018-Feb-10 18:58N 36°07' W 005°24'0 0.0
2018-Feb-10 18:25N 36°07' W 005°24'0 0.0
2018-Feb-10 17:58N 36°07' W 005°24'0 0.0
2018-Feb-10 17:28N 36°07' W 005°24'0 0.0
2018-Feb-10 16:58N 36°07' W 005°24'0 0.0
2018-Feb-10 16:22N 36°07' W 005°24'0 0.1
2018-Feb-10 15:58N 36°07' W 005°24'0 0.1
2018-Feb-10 15:25N 36°07' W 005°24'0 0.0
2018-Feb-10 14:58N 36°07' W 005°24'0 0.0
2018-Feb-10 14:28N 36°07' W 005°24'0 0.0
2018-Feb-10 13:58N 36°07' W 005°24'0 0.1
2018-Feb-10 13:28N 36°07' W 005°24'0 0.0
2018-Feb-10 12:58N 36°07' W 005°24'0 0.1
2018-Feb-10 12:28N 36°07' W 005°24'0 0.0
2018-Feb-10 11:58N 36°07' W 005°24'0 0.2
2018-Feb-10 11:28N 36°07' W 005°24'0 0.1
2018-Feb-10 10:55N 36°07' W 005°24'0 0.1
2018-Feb-10 10:28N 36°07' W 005°24'0 0.1
2018-Feb-10 09:55N 36°07' W 005°24'0 0.0
2018-Feb-10 09:28N 36°07' W 005°24'0 0.0
2018-Feb-10 08:58N 36°07' W 005°24'0 0.0
2018-Feb-10 08:28N 36°07' W 005°24'0 0.0
2018-Feb-10 07:58N 36°07' W 005°24'0 0.1
2018-Feb-10 07:28N 36°07' W 005°24'0 0.1
2018-Feb-10 06:58N 36°07' W 005°24'0 0.0
2018-Feb-10 06:28N 36°07' W 005°24'0 0.1
2018-Feb-10 05:58N 36°07' W 005°24'0 0.1
2018-Feb-10 05:28N 36°07' W 005°24'0 0.0
2018-Feb-10 04:58N 36°07' W 005°24'0 0.1
2018-Feb-10 04:28N 36°07' W 005°24'0 0.0
2018-Feb-10 03:58N 36°07' W 005°24'0 0.1
2018-Feb-10 03:28N 36°07' W 005°24'0 0.1
2018-Feb-10 02:58N 36°07' W 005°24'0 0.0
2018-Feb-10 02:28N 36°07' W 005°24'0 0.0
2018-Feb-10 01:58N 36°07' W 005°24'0 0.0
2018-Feb-10 01:28N 36°07' W 005°24'0 0.1
2018-Feb-10 00:58N 36°07' W 005°24'0 0.2
2018-Feb-10 00:30N 36°07' W 005°24'1 2.5
2018-Feb-10 00:00N 36°06' W 005°23'4 7.9
2018-Feb-09 23:30N 36°04' W 005°19'5 9.3
2018-Feb-09 23:00N 36°04' W 005°13'1 5.8
2018-Feb-09 22:45N 36°04' W 005°11'  

Dump ship's entire track history